Time;durP1;ratioP1;P1;durP2;ratioP2;P2;SDS_P1;SDS_P2;PMS_P1;PMS_P2;Temp;Humidity;BMP_temperature;BMP_pressure;BME280_temperature;BME280_humidity;BME280_pressure;Samples;Min_cycle;Max_cycle;Signal;HPM_P1;HPM_P2
2021/03/07 00:02:08;;;;;;;10.33;4.60;;;-0.40;99.90;;;;;;5003435;28;20038;-59
2021/03/07 00:04:33;;;;;;;7.87;4.70;;;-0.50;99.90;;;;;;5009249;28;20116;-60
2021/03/07 00:06:59;;;;;;;10.77;4.87;;;-0.50;99.90;;;;;;5008029;28;20037;-60
2021/03/07 00:09:24;;;;;;;9.97;5.57;;;-0.50;99.90;;;;;;5008103;28;20553;-62
2021/03/07 00:11:50;;;;;;;14.30;5.90;;;-0.60;99.90;;;;;;5007152;28;20483;-61
2021/03/07 00:14:16;;;;;;;14.13;6.03;;;-0.70;99.90;;;;;;5009980;28;20582;-60
2021/03/07 00:16:41;;;;;;;11.30;5.00;;;-0.70;99.90;;;;;;5012734;28;20502;-60
2021/03/07 00:19:07;;;;;;;13.77;5.37;;;-0.80;99.90;;;;;;5020210;28;20022;-62
2021/03/07 00:21:32;;;;;;;9.53;5.00;;;-0.80;99.90;;;;;;5017387;28;20399;-60
2021/03/07 00:23:58;;;;;;;12.30;5.73;;;-0.80;99.90;;;;;;5023514;28;20025;-61
2021/03/07 00:26:24;;;;;;;11.57;5.30;;;-0.90;99.90;;;;;;5014929;28;20033;-60
2021/03/07 00:28:49;;;;;;;11.23;5.83;;;-0.90;99.90;;;;;;5022128;28;20030;-61
2021/03/07 00:31:15;;;;;;;9.30;4.90;;;-0.90;99.90;;;;;;5010419;28;20107;-62
2021/03/07 00:33:40;;;;;;;10.57;4.53;;;-0.90;99.90;;;;;;5014727;28;20022;-60
2021/03/07 00:36:06;;;;;;;12.53;5.20;;;-0.90;99.90;;;;;;5014257;28;20041;-62
2021/03/07 00:38:31;;;;;;;12.50;4.90;;;-0.90;99.90;;;;;;5013920;28;20542;-61
2021/03/07 00:40:57;;;;;;;9.60;5.53;;;-0.90;99.90;;;;;;5022124;28;20030;-60
2021/03/07 00:43:22;;;;;;;12.70;5.60;;;-0.80;99.90;;;;;;5013965;28;20030;-61
2021/03/07 00:45:48;;;;;;;10.87;4.23;;;-0.80;99.90;;;;;;5013282;28;20078;-61
2021/03/07 00:48:13;;;;;;;11.27;4.73;;;-0.80;99.90;;;;;;5015140;28;20423;-61
2021/03/07 00:50:39;;;;;;;9.17;4.77;;;-0.70;99.90;;;;;;5015499;28;20487;-61
2021/03/07 00:53:05;;;;;;;8.77;4.37;;;-0.70;99.90;;;;;;5018410;28;20055;-61
2021/03/07 00:55:30;;;;;;;10.57;4.47;;;-0.70;99.90;;;;;;5007502;28;20038;-61
2021/03/07 00:57:56;;;;;;;10.13;4.77;;;-0.70;99.90;;;;;;5019007;28;20067;-62
2021/03/07 01:00:28;;;;;;;9.00;4.03;;;-0.70;99.90;;;;;;5010115;28;20031;-61
2021/03/07 01:02:54;;;;;;;10.60;4.97;;;-0.70;99.90;;;;;;5021397;28;20088;-61
2021/03/07 01:05:20;;;;;;;9.13;4.13;;;-0.80;99.90;;;;;;5020521;28;20513;-61
2021/03/07 01:07:49;;;;;;;9.97;4.40;;;-0.70;99.90;;;;;;5018668;28;20905;-60
2021/03/07 01:10:18;;;;;;;14.77;5.10;;;-0.70;99.90;;;;;;4968830;28;20050;-61
2021/03/07 01:12:47;;;;;;;11.40;4.73;;;-0.60;99.90;;;;;;4999085;28;20038;-60
2021/03/07 01:15:12;;;;;;;10.43;4.80;;;-0.60;99.90;;;;;;5006127;28;20097;-60
2021/03/07 01:17:38;;;;;;;8.43;4.27;;;-0.60;99.90;;;;;;5009997;28;20041;-60
2021/03/07 01:20:10;;;;;;;13.50;5.03;;;-0.70;99.90;;;;;;5007424;28;20136;-60
2021/03/07 01:22:35;;;;;;;10.33;5.30;;;-0.90;99.90;;;;;;5010140;28;20061;-59
2021/03/07 01:25:01;;;;;;;10.43;5.30;;;-1.00;99.90;;;;;;5018512;28;20853;-59
2021/03/07 01:27:27;;;;;;;11.03;4.87;;;-1.00;99.90;;;;;;5008004;28;20053;-60
2021/03/07 01:29:52;;;;;;;10.70;5.20;;;-1.10;99.90;;;;;;5005107;28;20066;-61
2021/03/07 01:32:18;;;;;;;13.93;5.57;;;-1.10;99.90;;;;;;5004342;28;20037;-60
2021/03/07 01:34:43;;;;;;;8.60;4.53;;;-1.10;99.90;;;;;;5010621;28;20030;-62
2021/03/07 01:37:09;;;;;;;11.47;5.20;;;-1.10;99.90;;;;;;5010463;28;20040;-60
2021/03/07 01:39:34;;;;;;;10.97;5.37;;;-1.10;99.90;;;;;;5019303;28;20026;-61
2021/03/07 01:42:08;;;;;;;13.77;5.20;;;-1.10;99.90;;;;;;5022256;28;20029;-59
2021/03/07 01:44:34;;;;;;;8.88;5.40;;;-1.10;99.90;;;;;;5018070;28;20084;-59
2021/03/07 01:46:59;;;;;;;9.73;5.53;;;-1.20;99.90;;;;;;5020746;28;20029;-59
2021/03/07 01:49:25;;;;;;;12.53;5.57;;;-1.30;99.90;;;;;;5018720;28;20121;-58
2021/03/07 01:51:51;;;;;;;14.17;5.80;;;-1.30;99.90;;;;;;5020833;28;20579;-60
2021/03/07 01:54:17;;;;;;;10.77;5.33;;;-1.40;99.90;;;;;;5017941;28;20029;-59
2021/03/07 01:56:45;;;;;;;10.50;5.47;;;-1.40;99.90;;;;;;5019225;28;20021;-59
2021/03/07 01:59:13;;;;;;;11.87;5.37;;;-1.50;99.90;;;;;;5014247;28;20026;-60
2021/03/07 02:01:39;;;;;;;10.83;5.73;;;-1.60;99.90;;;;;;5021796;28;20367;-60
2021/03/07 02:04:05;;;;;;;12.57;5.83;;;-1.70;99.90;;;;;;5025847;28;20423;-61
2021/03/07 02:06:30;;;;;;;10.77;5.47;;;-1.70;99.90;;;;;;5017684;28;20151;-60
2021/03/07 02:08:56;;;;;;;12.27;6.50;;;-1.80;99.90;;;;;;5015808;28;20105;-60
2021/03/07 02:11:22;;;;;;;17.00;6.13;;;-1.90;99.90;;;;;;5021646;28;20395;-61
2021/03/07 02:13:47;;;;;;;12.60;6.37;;;-2.00;99.90;;;;;;5015044;28;20160;-61
2021/03/07 02:16:19;;;;;;;14.30;6.20;;;-2.10;99.90;;;;;;5016184;28;20079;-61
2021/03/07 02:18:49;;;;;;;17.47;7.73;;;-2.10;99.90;;;;;;5014012;28;20040;-61
2021/03/07 02:21:24;;;;;;;14.27;6.30;;;-2.20;99.90;;;;;;5018876;28;20415;-61
2021/03/07 02:24:04;;;;;;;17.10;6.13;;;-2.20;99.90;;;;;;5015729;28;20496;-61
2021/03/07 02:26:32;;;;;;;22.27;7.33;;;-2.30;99.90;;;;;;5024363;28;20040;-61
2021/03/07 02:28:58;;;;;;;15.57;7.57;;;-2.30;99.90;;;;;;5017826;28;20022;-62
2021/03/07 02:31:26;;;;;;;12.53;6.47;;;-2.30;99.90;;;;;;5012703;28;20034;-61
2021/03/07 02:34:08;;;;;;;17.10;5.87;;;-2.30;99.90;;;;;;5021602;28;20025;-61
2021/03/07 02:36:40;;;;;;;14.73;6.27;;;-2.30;99.90;;;;;;5015294;28;20697;-61
2021/03/07 02:39:07;;;;;;;12.60;6.40;;;-2.20;99.90;;;;;;5017872;28;20045;-61
2021/03/07 02:41:34;;;;;;;10.13;5.87;;;-2.20;99.90;;;;;;5014838;28;20635;-61
2021/03/07 02:44:04;;;;;;;14.10;6.93;;;-2.20;99.90;;;;;;5015765;28;20014;-60
2021/03/07 02:46:32;;;;;;;11.47;6.40;;;-2.10;99.90;;;;;;5011290;28;20053;-60
2021/03/07 02:49:01;;;;;;;13.20;6.73;;;-2.10;99.90;;;;;;5021322;28;20100;-61
2021/03/07 02:51:31;;;;;;;15.97;5.90;;;-2.10;99.90;;;;;;5016552;28;20022;-59
2021/03/07 02:53:59;;;;;;;9.67;6.03;;;-2.10;99.90;;;;;;5021303;28;20518;-60
2021/03/07 02:56:30;;;;;;;12.77;6.17;;;-2.00;99.90;;;;;;5010645;28;20022;-56
2021/03/07 02:59:00;;;;;;;8.93;5.33;;;-2.00;99.90;;;;;;5018043;28;20419;-60
2021/03/07 03:01:28;;;;;;;15.73;6.27;;;-2.00;99.90;;;;;;5021284;28;20105;-61
2021/03/07 03:03:54;;;;;;;10.27;5.87;;;-2.10;99.90;;;;;;5029264;28;20038;-61
2021/03/07 03:06:21;;;;;;;11.43;5.30;;;-2.10;99.90;;;;;;5022376;28;20037;-60
2021/03/07 03:08:53;;;;;;;10.93;5.10;;;-2.10;99.90;;;;;;5009922;28;20021;-61
2021/03/07 03:11:21;;;;;;;8.63;5.13;;;-2.10;99.90;;;;;;4980563;28;20041;-62
2021/03/07 03:13:49;;;;;;;9.57;5.53;;;-2.10;99.90;;;;;;5009552;28;20029;-61
2021/03/07 03:16:16;;;;;;;15.33;5.63;;;-2.10;99.90;;;;;;5018784;28;20037;-60
2021/03/07 03:18:43;;;;;;;12.40;5.47;;;-2.10;99.90;;;;;;5023380;28;20032;-61
2021/03/07 03:21:11;;;;;;;14.10;6.03;;;-2.20;99.90;;;;;;5022024;28;20167;-61
2021/03/07 03:23:37;;;;;;;12.73;6.13;;;-2.20;99.90;;;;;;5023735;28;20445;-61
2021/03/07 03:26:03;;;;;;;15.60;6.97;;;-2.20;99.90;;;;;;5022097;28;20032;-60
2021/03/07 03:28:29;;;;;;;16.10;6.73;;;-2.20;99.90;;;;;;5018837;28;20447;-61
2021/03/07 03:30:56;;;;;;;16.80;7.63;;;-2.10;99.90;;;;;;5000940;28;20034;-60
2021/03/07 03:33:26;;;;;;;15.70;7.73;;;-2.10;99.90;;;;;;5003457;28;20106;-60
2021/03/07 03:35:53;;;;;;;15.47;7.10;;;-2.10;99.90;;;;;;5012225;28;20109;-60
2021/03/07 03:38:19;;;;;;;16.80;7.77;;;-2.10;99.90;;;;;;5020507;28;20021;-59
2021/03/07 03:40:48;;;;;;;22.07;6.97;;;-2.10;99.90;;;;;;5021739;28;20022;-60
2021/03/07 03:43:14;;;;;;;16.43;6.73;;;-2.20;99.90;;;;;;5018749;28;20025;-54
2021/03/07 03:45:43;;;;;;;14.53;7.27;;;-2.20;99.90;;;;;;5012601;28;20024;-59
2021/03/07 03:48:16;;;;;;;14.60;7.20;;;-2.30;99.90;;;;;;5023934;28;20029;-61
2021/03/07 03:50:44;;;;;;;16.10;7.47;;;-2.40;99.90;;;;;;5022135;28;20056;-61
2021/03/07 03:53:15;;;;;;;19.87;7.30;;;-2.50;99.90;;;;;;5024039;28;20025;-60
2021/03/07 03:55:45;;;;;;;13.17;6.23;;;-2.50;99.90;;;;;;5020772;28;20116;-59
2021/03/07 03:58:12;;;;;;;15.57;7.33;;;-2.50;99.90;;;;;;5024039;28;20033;-59
2021/03/07 04:00:39;;;;;;;15.43;7.30;;;-2.60;99.90;;;;;;5005991;28;20037;-61
2021/03/07 04:03:11;;;;;;;17.53;7.40;;;-2.60;99.90;;;;;;5024008;28;20022;-61
2021/03/07 04:05:39;;;;;;;14.73;7.10;;;-2.60;99.90;;;;;;5020437;28;20021;-61
2021/03/07 04:08:07;;;;;;;11.17;6.30;;;-2.70;99.90;;;;;;5024622;28;20021;-58
2021/03/07 04:10:32;;;;;;;13.70;7.47;;;-2.70;99.90;;;;;;5018853;28;20040;-60
2021/03/07 04:12:59;;;;;;;14.83;7.20;;;-2.70;99.90;;;;;;4990679;28;20038;-60
2021/03/07 04:15:27;;;;;;;13.07;6.50;;;-2.70;99.90;;;;;;5015928;28;20491;-61
2021/03/07 04:17:54;;;;;;;10.40;6.30;;;-2.70;99.90;;;;;;5012285;28;20026;-59
2021/03/07 04:20:21;;;;;;;10.93;6.87;;;-2.70;99.90;;;;;;5011605;28;20058;-60
2021/03/07 04:22:49;;;;;;;13.70;6.50;;;-2.80;99.90;;;;;;5020189;28;20678;-60
2021/03/07 04:25:15;;;;;;;11.93;6.73;;;-2.80;99.90;;;;;;5025518;28;20022;-61
2021/03/07 04:27:42;;;;;;;15.20;7.30;;;-2.80;99.90;;;;;;5019483;28;20092;-61
2021/03/07 04:30:08;;;;;;;15.93;6.43;;;-2.80;99.90;;;;;;5000602;28;20121;-60
2021/03/07 04:32:35;;;;;;;12.17;6.23;;;-2.70;99.90;;;;;;5025687;28;20030;-60
2021/03/07 04:35:03;;;;;;;11.30;6.10;;;-2.80;99.90;;;;;;5017430;28;20037;-61
2021/03/07 04:37:29;;;;;;;14.40;6.93;;;-2.80;99.90;;;;;;5026347;28;20076;-61
2021/03/07 04:39:55;;;;;;;14.00;7.10;;;-2.70;99.90;;;;;;5014358;28;20018;-59
2021/03/07 04:42:21;;;;;;;13.47;7.30;;;-2.70;99.90;;;;;;5027773;28;20100;-60
2021/03/07 04:44:46;;;;;;;12.17;6.90;;;-2.70;99.90;;;;;;5014289;28;20040;-61
2021/03/07 04:47:13;;;;;;;14.37;7.37;;;-2.80;99.90;;;;;;5019919;28;20026;-60
2021/03/07 04:49:38;;;;;;;12.93;7.47;;;-2.80;99.90;;;;;;5023794;28;20034;-60
2021/03/07 04:52:04;;;;;;;12.97;6.93;;;-2.80;99.90;;;;;;5019203;28;20032;-59
2021/03/07 04:54:30;;;;;;;13.63;7.23;;;-2.90;99.90;;;;;;5024395;28;20121;-61
2021/03/07 04:56:55;;;;;;;12.07;6.77;;;-2.90;99.90;;;;;;5018792;28;20038;-59
2021/03/07 04:59:21;;;;;;;12.23;6.80;;;-2.90;99.90;;;;;;5021437;28;20055;-59
2021/03/07 05:01:46;;;;;;;14.07;7.27;;;-2.90;99.90;;;;;;5015635;28;20060;-60
2021/03/07 05:04:12;;;;;;;11.83;7.20;;;-2.90;99.90;;;;;;5007429;28;20488;-60
2021/03/07 05:06:40;;;;;;;15.70;6.83;;;-2.90;99.90;;;;;;5016102;28;20061;-59
2021/03/07 05:09:09;;;;;;;10.33;6.37;;;-2.90;99.90;;;;;;4996646;28;20034;-60
2021/03/07 05:11:36;;;;;;;12.00;7.07;;;-2.90;99.90;;;;;;5009966;28;20674;-61
2021/03/07 05:14:02;;;;;;;15.73;6.57;;;-2.90;99.90;;;;;;4987674;28;20531;-61
2021/03/07 05:16:28;;;;;;;13.00;7.03;;;-2.90;99.90;;;;;;5019629;28;20048;-59
2021/03/07 05:18:55;;;;;;;13.53;7.20;;;-3.00;99.90;;;;;;5015606;28;20153;-61
2021/03/07 05:21:21;;;;;;;16.90;8.00;;;-3.00;99.90;;;;;;5018818;28;20075;-60
2021/03/07 05:23:47;;;;;;;15.07;7.27;;;-3.10;99.90;;;;;;5018289;28;20108;-60
2021/03/07 05:26:12;;;;;;;14.60;7.57;;;-3.10;99.90;;;;;;5018791;28;20608;-60
2021/03/07 05:28:38;;;;;;;14.50;6.80;;;-3.10;99.90;;;;;;5017131;28;20041;-60
2021/03/07 05:31:04;;;;;;;13.53;7.20;;;-3.10;99.90;;;;;;4997653;28;20030;-60
2021/03/07 05:33:30;;;;;;;17.20;7.53;;;-3.10;99.90;;;;;;5011355;28;20026;-61
2021/03/07 05:35:56;;;;;;;12.50;6.97;;;-3.10;99.90;;;;;;4994277;28;20036;-60
2021/03/07 05:38:22;;;;;;;12.53;6.67;;;-3.10;99.90;;;;;;5009540;28;20030;-59
2021/03/07 05:40:47;;;;;;;12.17;5.63;;;-3.00;99.90;;;;;;5003275;28;20022;-60
2021/03/07 05:43:13;;;;;;;10.40;6.27;;;-3.00;99.90;;;;;;5009627;28;20121;-61
2021/03/07 05:45:39;;;;;;;14.30;6.73;;;-3.00;99.90;;;;;;5018563;28;20022;-61
2021/03/07 05:48:05;;;;;;;13.33;6.67;;;-2.90;99.90;;;;;;5017416;28;20369;-61
2021/03/07 05:50:31;;;;;;;15.27;6.80;;;-2.90;99.90;;;;;;5017644;28;20097;-59
2021/03/07 05:52:57;;;;;;;13.47;6.80;;;-2.90;99.90;;;;;;5007173;28;20104;-61
2021/03/07 05:55:27;;;;;;;10.30;5.50;;;-2.90;99.90;;;;;;5011796;28;20064;-61
2021/03/07 05:57:56;;;;;;;10.60;6.70;;;-2.90;99.90;;;;;;5008373;28;20418;-61
2021/03/07 06:00:23;;;;;;;15.53;6.67;;;-3.00;99.90;;;;;;5014724;28;20022;-61
2021/03/07 06:02:49;;;;;;;14.83;7.00;;;-3.00;99.90;;;;;;5007081;28;20496;-61
2021/03/07 06:05:15;;;;;;;10.77;6.77;;;-3.10;99.90;;;;;;5008481;28;20057;-59
2021/03/07 06:07:41;;;;;;;15.97;7.70;;;-3.20;99.90;;;;;;5021242;28;20105;-60
2021/03/07 06:10:19;;;;;;;13.23;6.93;;;-3.20;99.90;;;;;;5018835;28;20029;-61
2021/03/07 06:12:56;;;;;;;12.40;6.23;;;-3.20;99.90;;;;;;5000912;28;20033;-61
2021/03/07 06:15:21;;;;;;;16.30;7.20;;;-3.20;99.90;;;;;;4982560;28;20080;-59
2021/03/07 06:17:47;;;;;;;13.03;7.00;;;-3.30;99.90;;;;;;5008788;28;20519;-60
2021/03/07 06:20:15;;;;;;;13.43;6.87;;;-3.40;99.90;;;;;;4992738;28;20023;-60
2021/03/07 06:23:01;;;;;;;16.03;7.27;;;-3.40;99.90;;;;;;5005998;28;20029;-61
2021/03/07 06:25:29;;;;;;;18.33;7.10;;;-3.50;99.90;;;;;;5000914;28;20021;-61
2021/03/07 06:27:55;;;;;;;12.30;6.73;;;-3.50;99.90;;;;;;5018343;28;20024;-61
2021/03/07 06:30:24;;;;;;;18.03;7.57;;;-3.50;99.90;;;;;;5016095;28;20036;-61
2021/03/07 06:32:52;;;;;;;13.13;6.90;;;-3.60;99.90;;;;;;5027891;28;20109;-62
2021/03/07 06:35:29;;;;;;;14.30;6.33;;;-3.50;99.90;;;;;;5023395;28;20028;-60
2021/03/07 06:38:08;;;;;;;11.57;6.30;;;-3.40;99.90;;;;;;5017835;28;20093;-61
2021/03/07 06:40:37;;;;;;;9.60;6.03;;;-3.30;99.90;;;;;;5024863;28;20061;-62
2021/03/07 06:43:05;;;;;;;15.07;7.63;;;-3.30;99.90;;;;;;5029833;28;20029;-61
2021/03/07 06:45:39;;;;;;;18.30;10.20;;;-3.20;99.90;;;;;;5023751;28;20087;-61
2021/03/07 06:48:05;;;;;;;25.45;12.32;;;-3.20;99.90;;;;;;5011259;28;20026;-62
2021/03/07 06:50:31;;;;;;;26.90;13.23;;;-3.10;99.90;;;;;;5024129;28;20030;-61
2021/03/07 06:52:58;;;;;;;21.33;9.07;;;-3.10;99.90;;;;;;5028709;28;20027;-62
2021/03/07 06:55:29;;;;;;;18.03;8.47;;;-3.00;99.90;;;;;;5025141;28;20064;-62
2021/03/07 06:57:55;;;;;;;15.07;9.23;;;-3.00;99.90;;;;;;5027614;28;20021;-61
2021/03/07 07:00:38;;;;;;;15.47;8.67;;;-2.80;99.90;;;;;;5024019;28;20036;-61
2021/03/07 07:03:15;;;;;;;14.88;7.65;;;-2.70;99.90;;;;;;5027356;28;20105;-61
2021/03/07 07:05:45;;;;;;;12.63;6.83;;;-2.60;99.90;;;;;;5007405;28;20189;-62
2021/03/07 07:08:14;;;;;;;12.73;6.30;;;-2.40;99.90;;;;;;5028935;28;20116;-60
2021/03/07 07:10:52;;;;;;;10.83;5.70;;;-1.80;99.90;;;;;;5007808;28;20082;-58
2021/03/07 07:13:25;;;;;;;8.55;5.20;;;-0.70;99.90;;;;;;5025427;28;20057;-60
2021/03/07 07:15:56;;;;;;;12.60;5.68;;;0.70;99.90;;;;;;4984985;28;20048;-62
2021/03/07 07:18:23;;;;;;;10.45;6.03;;;1.40;99.90;;;;;;5024895;28;20155;-62
2021/03/07 07:20:51;;;;;;;11.35;5.60;;;1.60;99.90;;;;;;5014830;28;20017;-61
2021/03/07 07:23:17;;;;;;;13.68;6.15;;;1.20;99.90;;;;;;5019869;28;20037;-61
2021/03/07 07:25:44;;;;;;;12.45;5.80;;;0.70;99.90;;;;;;5030088;28;20021;-62
2021/03/07 07:28:09;;;;;;;11.20;5.55;;;0.30;99.90;;;;;;5023285;28;20034;-61
2021/03/07 07:30:36;;;;;;;12.27;6.35;;;0.10;99.90;;;;;;5021776;28;20402;-60
2021/03/07 07:33:04;;;;;;;10.88;6.30;;;-0.10;99.90;;;;;;5010962;28;20029;-60
2021/03/07 07:35:30;;;;;;;13.38;6.53;;;-0.30;99.90;;;;;;5023209;28;20091;-62
2021/03/07 07:38:01;;;;;;;13.50;6.57;;;-0.50;99.90;;;;;;5009168;28;20120;-61
2021/03/07 07:40:43;;;;;;;14.83;6.57;;;-0.50;99.90;;;;;;5020554;28;20034;-62
2021/03/07 07:43:09;;;;;;;13.33;6.30;;;-0.60;99.90;;;;;;5004613;28;20034;-60
2021/03/07 07:45:36;;;;;;;10.07;6.27;;;-0.60;99.90;;;;;;5018289;28;20105;-61
2021/03/07 07:48:01;;;;;;;11.23;6.03;;;-0.60;99.90;;;;;;5010719;28;20038;-61
2021/03/07 07:50:27;;;;;;;12.33;6.60;;;-0.50;99.90;;;;;;5018532;28;20033;-61
2021/03/07 07:52:53;;;;;;;12.43;6.67;;;-0.50;99.90;;;;;;5006798;28;20029;-61
2021/03/07 07:55:19;;;;;;;15.27;6.17;;;-0.50;99.90;;;;;;5014051;28;20026;-60
2021/03/07 07:57:47;;;;;;;12.73;7.13;;;-0.40;99.90;;;;;;5023804;28;20132;-61
2021/03/07 08:00:19;;;;;;;12.53;7.33;;;-0.40;99.90;;;;;;5002356;28;20026;-62
2021/03/07 08:02:56;;;;;;;10.60;6.33;;;-0.30;99.90;;;;;;5015893;28;20037;-60
2021/03/07 08:05:22;;;;;;;13.37;6.63;;;-0.20;99.90;;;;;;5005174;28;20077;-61
2021/03/07 08:08:00;;;;;;;13.30;6.83;;;-0.20;99.90;;;;;;5015937;28;20037;-59
2021/03/07 08:10:48;;;;;;;13.27;6.27;;;-0.10;99.90;;;;;;5003144;28;20034;-59
2021/03/07 08:13:29;;;;;;;12.60;6.53;;;0.00;99.90;;;;;;5020603;28;20040;-60
2021/03/07 08:15:55;;;;;;;13.37;6.67;;;0.00;99.90;;;;;;4977927;28;20065;-61
2021/03/07 08:18:23;;;;;;;13.77;6.50;;;0.10;99.90;;;;;;5015069;28;20044;-59
2021/03/07 08:20:52;;;;;;;13.98;6.53;;;0.20;99.90;;;;;;5017386;28;20488;-62
2021/03/07 08:23:20;;;;;;;10.32;5.88;;;0.30;99.90;;;;;;5010659;28;20675;-61
2021/03/07 08:25:46;;;;;;;13.07;7.93;;;0.40;99.90;;;;;;5012778;28;20021;-63
2021/03/07 08:28:26;;;;;;;14.38;6.40;;;0.50;99.90;;;;;;5021439;28;20096;-63
2021/03/07 08:30:56;;;;;;;12.98;6.13;;;0.60;99.90;;;;;;5011304;28;20032;-62
2021/03/07 08:33:37;;;;;;;12.57;5.85;;;0.70;99.90;;;;;;5001033;28;20040;-63
2021/03/07 08:36:10;;;;;;;13.45;7.07;;;0.80;99.90;;;;;;5014157;28;20021;-61
2021/03/07 08:38:38;;;;;;;10.25;5.93;;;0.90;99.90;;;;;;5021279;28;20029;-62
2021/03/07 08:41:04;;;;;;;19.63;9.00;;;1.00;99.90;;;;;;5020401;28;20026;-63
2021/03/07 08:43:30;;;;;;;14.27;6.97;;;1.10;99.90;;;;;;5012735;28;20036;-61
2021/03/07 08:46:01;;;;;;;12.00;5.63;;;1.10;99.90;;;;;;5019979;28;20045;-63
2021/03/07 08:48:28;;;;;;;18.88;6.00;;;1.20;99.90;;;;;;5016058;28;20037;-62
2021/03/07 08:50:55;;;;;;;10.85;5.20;;;1.30;99.90;;;;;;5024052;28;20511;-61
2021/03/07 08:53:26;;;;;;;13.13;5.45;;;1.40;99.90;;;;;;5008499;28;20037;-61
2021/03/07 08:55:52;;;;;;;15.52;6.57;;;1.50;99.90;;;;;;5009754;28;20038;-62
2021/03/07 08:58:18;;;;;;;10.90;6.38;;;1.50;99.90;;;;;;5018608;28;20030;-62
2021/03/07 09:00:46;;;;;;;9.38;5.10;;;1.60;99.90;;;;;;5017113;28;20530;-61
2021/03/07 09:03:15;;;;;;;8.18;4.18;;;1.60;99.90;;;;;;5021630;28;20035;-62
2021/03/07 09:05:41;;;;;;;8.45;5.55;;;1.70;99.90;;;;;;5003738;28;20032;-62
2021/03/07 09:08:07;;;;;;;7.25;4.45;;;1.80;99.90;;;;;;5017637;28;20120;-62
2021/03/07 09:10:38;;;;;;;8.40;4.35;;;1.90;99.90;;;;;;5000025;28;20112;-62
2021/03/07 09:13:18;;;;;;;9.75;4.85;;;2.00;99.90;;;;;;5005518;28;20104;-62
2021/03/07 09:15:56;;;;;;;9.15;4.72;;;2.10;99.90;;;;;;4975551;28;20050;-63
2021/03/07 09:18:37;;;;;;;10.50;3.85;;;2.20;99.90;;;;;;5007265;28;20025;-62
2021/03/07 09:21:04;;;;;;;8.75;4.43;;;2.50;99.90;;;;;;5015007;28;20018;-62
2021/03/07 09:23:42;;;;;;;7.22;4.47;;;3.20;99.90;;;;;;5014465;28;20038;-63
2021/03/07 09:26:12;;;;;;;9.57;4.28;;;4.00;99.90;;;;;;5015180;28;20054;-63
2021/03/07 09:28:39;;;;;;;8.65;5.20;;;5.00;99.90;;;;;;5018517;28;20041;-62
2021/03/07 09:31:17;;;;;;;11.20;4.50;;;5.70;99.30;;;;;;5016191;28;20029;-63
2021/03/07 09:33:54;;;;;;;7.88;4.60;;;6.30;97.40;;;;;;5000170;28;20014;-63
2021/03/07 09:36:22;;;;;;;7.97;3.55;;;6.70;96.00;;;;;;5018629;28;20104;-63
2021/03/07 09:38:54;;;;;;;10.90;5.32;;;6.80;94.50;;;;;;5020102;28;20487;-63
2021/03/07 09:41:40;;;;;;;8.90;4.55;;;7.00;95.10;;;;;;5013850;28;20033;-63
2021/03/07 09:44:10;;;;;;;7.22;4.65;;;7.10;93.90;;;;;;4994809;28;20026;-63
2021/03/07 09:46:36;;;;;;;8.40;4.80;;;7.40;93.60;;;;;;5015586;28;20075;-64
2021/03/07 09:49:07;;;;;;;7.22;4.10;;;7.40;92.40;;;;;;5008140;28;20040;-63
2021/03/07 09:51:37;;;;;;;8.48;4.38;;;7.00;92.30;;;;;;5021740;28;20136;-64
2021/03/07 09:54:08;;;;;;;6.63;4.28;;;7.50;92.90;;;;;;5023019;28;20025;-63
2021/03/07 09:56:35;;;;;;;8.52;4.68;;;8.10;91.90;;;;;;5018160;28;20116;-62
2021/03/07 09:59:22;;;;;;;7.82;4.47;;;8.50;90.70;;;;;;5019899;28;20021;-64
2021/03/07 10:01:56;;;;;;;8.93;4.43;;;8.50;89.50;;;;;;5016044;28;20125;-63
2021/03/07 10:04:39;;;;;;;8.55;4.80;;;8.10;89.50;;;;;;5006882;28;20049;-62
2021/03/07 10:07:11;;;;;;;6.60;4.47;;;8.10;81.90;;;;;;5006965;28;20488;-65
2021/03/07 10:09:55;;;;;;;7.28;4.38;;;8.20;80.00;;;;;;5015315;28;20145;-62
2021/03/07 10:12:20;;;;;;;8.80;4.93;;;9.00;80.60;;;;;;5013954;28;20026;-64
2021/03/07 10:14:55;;;;;;;6.30;3.90;;;9.20;78.10;;;;;;5012061;28;20025;-62
2021/03/07 10:17:21;;;;;;;7.68;4.30;;;9.20;71.80;;;;;;4988930;28;20042;-63
2021/03/07 10:19:47;;;;;;;8.35;3.88;;;8.90;70.90;;;;;;5020596;28;20021;-63
2021/03/07 10:22:13;;;;;;;6.72;3.92;;;8.90;68.60;;;;;;4999519;28;20030;-63
2021/03/07 10:24:38;;;;;;;12.10;5.78;;;8.80;67.80;;;;;;5003238;28;20449;-62
2021/03/07 10:27:09;;;;;;;8.07;4.25;;;8.60;67.00;;;;;;4997575;28;20196;-62
2021/03/07 10:29:36;;;;;;;8.50;4.03;;;8.50;66.10;;;;;;5012834;28;20030;-62
2021/03/07 10:32:16;;;;;;;5.60;3.75;;;8.50;67.00;;;;;;5016875;28;20025;-62
2021/03/07 10:34:50;;;;;;;6.90;3.60;;;8.20;68.80;;;;;;5015205;28;20045;-62
2021/03/07 10:37:38;;;;;;;10.77;4.07;;;7.50;72.50;;;;;;5020833;28;20100;-63
2021/03/07 10:40:06;;;;;;;6.70;3.92;;;7.20;75.10;;;;;;5009912;28;20014;-62
2021/03/07 10:42:34;;;;;;;7.25;3.92;;;7.30;76.50;;;;;;5025347;28;20033;-62
2021/03/07 10:45:16;;;;;;;6.35;3.42;;;7.50;75.70;;;;;;5000210;28;20042;-62
2021/03/07 10:47:42;;;;;;;6.70;3.70;;;7.30;74.10;;;;;;5001012;28;20042;-63
2021/03/07 10:50:08;;;;;;;6.82;3.35;;;7.30;73.60;;;;;;5013987;28;20018;-62
2021/03/07 10:52:34;;;;;;;6.93;3.80;;;7.30;73.10;;;;;;5014502;28;20057;-61
2021/03/07 10:54:59;;;;;;;8.43;4.63;;;7.20;73.80;;;;;;5007181;28;20026;-61
2021/03/07 10:57:25;;;;;;;7.35;3.72;;;7.00;76.30;;;;;;5011283;28;20030;-63
2021/03/07 10:59:52;;;;;;;8.57;4.32;;;7.00;74.90;;;;;;5021091;28;20026;-62
2021/03/07 11:02:18;;;;;;;10.20;5.07;;;7.10;73.80;;;;;;5011821;28;20030;-62
2021/03/07 11:04:46;;;;;;;6.88;4.05;;;7.20;74.20;;;;;;5006707;28;20399;-61
2021/03/07 11:07:13;;;;;;;11.80;5.45;;;7.20;75.10;;;;;;4986701;28;20022;-63
2021/03/07 11:09:41;;;;;;;7.20;4.18;;;7.40;72.80;;;;;;5007462;28;20045;-63
2021/03/07 11:12:08;;;;;;;8.40;4.68;;;7.30;71.90;;;;;;4996740;28;20051;-62
2021/03/07 11:14:33;;;;;;;7.55;3.95;;;7.30;71.60;;;;;;5008764;28;20489;-62
2021/03/07 11:16:59;;;;;;;9.43;4.53;;;7.40;72.50;;;;;;4977510;28;20132;-61
2021/03/07 11:19:24;;;;;;;8.90;4.22;;;7.30;73.30;;;;;;5012640;28;20682;-62
2021/03/07 11:21:50;;;;;;;8.88;4.85;;;7.40;71.00;;;;;;5015224;28;20025;-61
2021/03/07 11:24:16;;;;;;;6.63;3.83;;;7.40;70.60;;;;;;5002776;28;20018;-61
2021/03/07 11:26:41;;;;;;;9.77;4.25;;;7.20;69.00;;;;;;5012802;28;20386;-61
2021/03/07 11:29:07;;;;;;;6.05;3.10;;;7.30;68.40;;;;;;5000389;28;20033;-62
2021/03/07 11:31:33;;;;;;;7.50;3.97;;;7.30;65.20;;;;;;5007032;28;20479;-63
2021/03/07 11:33:58;;;;;;;9.43;4.88;;;7.30;67.50;;;;;;5012559;28;20104;-63
2021/03/07 11:36:24;;;;;;;13.93;5.63;;;7.30;66.00;;;;;;5016120;28;20068;-62
2021/03/07 11:38:50;;;;;;;10.00;4.70;;;7.20;68.10;;;;;;5007424;28;20041;-62
2021/03/07 11:41:15;;;;;;;7.55;4.25;;;7.20;69.60;;;;;;5009298;28;20026;-63
2021/03/07 11:43:41;;;;;;;6.75;4.03;;;7.20;67.80;;;;;;5023727;28;20025;-61
2021/03/07 11:46:07;;;;;;;9.10;4.88;;;7.10;68.30;;;;;;4998523;28;20022;-62
2021/03/07 11:48:32;;;;;;;7.03;3.97;;;7.20;67.00;;;;;;5015363;28;20392;-62
2021/03/07 11:50:58;;;;;;;9.27;3.90;;;7.00;68.00;;;;;;5022024;28;20026;-62
2021/03/07 11:53:23;;;;;;;9.95;4.35;;;7.00;68.60;;;;;;5020079;28;20028;-60
2021/03/07 11:55:49;;;;;;;8.63;4.55;;;7.20;67.90;;;;;;5008172;28;20034;-62
2021/03/07 11:58:14;;;;;;;8.77;5.22;;;7.20;67.50;;;;;;5019174;28;20494;-60
2021/03/07 12:00:40;;;;;;;12.82;5.13;;;7.20;63.90;;;;;;5015429;28;20025;-62
2021/03/07 12:03:06;;;;;;;15.45;7.25;;;7.20;64.70;;;;;;5024059;28;20486;-59
2021/03/07 12:05:31;;;;;;;8.77;4.55;;;7.20;64.50;;;;;;5006687;28;20020;-62
2021/03/07 12:07:57;;;;;;;8.18;4.40;;;7.10;64.40;;;;;;5019836;28;20033;-60
2021/03/07 12:10:23;;;;;;;10.15;4.57;;;7.10;65.70;;;;;;5021410;28;20040;-59
2021/03/07 12:12:48;;;;;;;6.80;4.60;;;7.10;67.40;;;;;;5023934;28;20014;-60
2021/03/07 12:15:14;;;;;;;6.47;4.22;;;7.20;64.30;;;;;;5003688;28;20025;-62
2021/03/07 12:17:40;;;;;;;8.85;5.13;;;7.20;64.50;;;;;;5017538;28;20021;-62
2021/03/07 12:20:07;;;;;;;11.02;5.30;;;7.00;64.70;;;;;;4989345;28;20058;-60
2021/03/07 12:22:36;;;;;;;17.65;6.07;;;7.10;66.20;;;;;;4994508;28;20108;-60
2021/03/07 12:25:03;;;;;;;9.63;5.00;;;7.10;65.80;;;;;;4996838;28;20022;-62
2021/03/07 12:27:28;;;;;;;9.70;4.93;;;7.10;66.50;;;;;;5022121;28;20021;-62
2021/03/07 12:29:54;;;;;;;8.20;4.15;;;7.10;68.00;;;;;;5016655;28;20018;-60
2021/03/07 12:32:19;;;;;;;7.55;4.30;;;7.10;67.40;;;;;;5018906;28;20033;-61
2021/03/07 12:34:45;;;;;;;9.45;4.90;;;7.20;68.30;;;;;;5014637;28;20026;-62
2021/03/07 12:37:11;;;;;;;11.23;5.15;;;7.20;66.20;;;;;;5004901;28;20075;-62
2021/03/07 12:39:36;;;;;;;9.98;5.05;;;7.30;65.00;;;;;;5021382;28;20033;-62
2021/03/07 12:42:02;;;;;;;6.85;4.20;;;7.30;69.20;;;;;;5024652;28;20021;-62
2021/03/07 12:44:28;;;;;;;10.00;4.75;;;7.30;70.20;;;;;;5018482;28;20368;-61
2021/03/07 12:46:54;;;;;;;8.82;5.70;;;7.40;71.60;;;;;;5004727;28;20076;-61
2021/03/07 12:49:19;;;;;;;11.40;6.63;;;7.40;70.90;;;;;;5016798;28;20057;-62